Terminal Aerodrome Forecast
Issued by NWS Sioux Falls, SD

Home | Current Version | Previous Version | Text Only | Print | Product List | Glossary On
Versions: 1 2 3 4 5 6 7 8 9 10 11 12 13 14 15
000
FTUS43 KFSD 172320
TAFHON
TAF
KHON 172320Z 1800/1824 36010KT P6SM OVC080
     FM180600 33008KT P6SM OVC060
     FM180900 32007KT P6SM SCT100
     FM181400 32011G17KT P6SM SCT150
     FM181700 33019G26KT P6SM SCT035=

USA.gov is the U.S. government's official web portal to all federal, state and local government web resources and services.